Thursday, October 18, 2018, 2:45 PM GMT
Back to Local

CYQI, Yarmouth, N. S.

Location: , , Canada Lat: 43.833
Local Time: 2:45 PM GMT (14:45 GMT) Lon: -66.083
Time Zone: GMT Elev: 141 ft

Show me the last for .
Show Coded

Time T Td Feel RH Dir Speed Gust Alt SLP Vis Weather Sky Remarks
2018-10-18 14:23 39 25 26 55 320° 28 38 29.86 29.86 12 BKN036 OVC060 None
2018-10-18 14:00 39 25 26 55 310° 25 37 29.85 29.85 12 -SHGS BKN035 OVC055 None
2018-10-18 13:00 39 27 26 60 320° 31 40 29.83 29.83 12 BKN033 OVC055 None
2018-10-18 12:42 39 27 26 60 320° 26 37 29.82 29.83 12 BKN040 OVC063 None
2018-10-18 12:24 41 27 28 56 330° 31 41 29.81 29.82 12 -SHGS BKN036 OVC067 None
2018-10-18 12:00 41 27 29 56 320° 29 38 29.79 29.80 12 BKN035 OVC090 None
2018-10-18 11:08 39 30 25 69 320° 28 43 29.77 29.77 12 BKN046 Virga in the vinicity
2018-10-18 11:00 41 28 28 60 320° 30 43 29.77 29.78 9 -PL BKN032 BKN039 None
2018-10-18 10:00 43 30 32 60 320° 24 32 29.75 29.76 15 BKN047 None
2018-10-18 09:00 43 30 32 60 320° 20 33 29.73 29.74 15 BKN038 None
2018-10-18 08:00 43 28 32 56 310° 20 32 29.73 29.73 15 BKN041 BKN090 None
2018-10-18 07:00 43 30 32 60 310° 18 35 29.71 29.72 15 BKN041 None
2018-10-18 06:00 45 34 35 65 310° 18 30 29.71 29.72 15 BKN032 BKN058 None
2018-10-18 05:00 45 34 35 65 320° 21 28 29.70 29.71 15 BKN032 BKN054 None
2018-10-18 04:00 46 36 38 65 320° 17 26 29.70 29.70 15 BKN036 None
2018-10-18 03:00 48 37 40 66 310° 18 29 29.69 29.70 15 BKN035 None
2018-10-18 02:00 46 41 39 81 310° 14 21 29.69 29.69 12 SCT026 BKN058 OVC090 None
2018-10-18 01:07 46 39 38 75 320° 16 23 29.69 29.70 9 FEW016 OVC058 None
2018-10-18 01:00 46 41 36 81 320° 16 38 29.69 29.70 5 -SHRA BR SCT016 OVC041 None
2018-10-18 00:47 46 43 36 87 310° 28 39 29.69 29.70 5 SHRA BR SCT016 OVC046 None
2018-10-18 00:21 48 43 38 81 310° 28 41 29.68 29.69 9 -SHRA SCT016 OVC026 Wind Shift: 00 min
Pressure rising rapidly
2018-10-18 00:00 54 43 - 66 270° 21 35 29.66 29.67 15 SCT031 BKN090 None
2018-10-17 23:00 52 45 - 76 280° 17 25 29.66 29.67 15 BKN027 OVC110 None
2018-10-17 22:00 54 43 - 66 260° 16 25 29.66 29.67 15 SCT032 BKN058 OVC110 None
2018-10-17 21:00 54 43 - 66 260° 21 29 29.66 29.67 15 FEW029 BKN061 None
2018-10-17 20:00 55 45 - 66 250° 17 29 29.67 29.68 15 FEW033 SCT050 BKN100 None
2018-10-17 19:00 55 39 - 54 240° 22 31 29.70 29.71 15 SCT035 SCT097 None
2018-10-17 18:00 57 43 - 58 220° 16 26 29.72 29.72 15 SCT035 SCT069 SCT097 None
2018-10-17 17:00 55 41 - 58 230° 16 - 29.77 29.77 15 SCT035 BKN097 OVC130 None
2018-10-17 16:00 54 41 - 62 220° 13 - 29.81 29.82 15 SCT038 OVC100 Pressure falling rapidly
2018-10-17 15:00 54 41 - 62 220° 13 22 29.83 29.84 15 SCT038 OVC100 None

Support USWX by starting your Amazon purchase here.